KPUC/PUC METAR and TAF weather

Enter ICAO airport designator
Station Type Date Time Source
KPUC METAR 2023/02/06 18:53 UTC NOAA

KPUC 061853Z AUTO 33008G16KT 10SM FEW050 03/M08 A3005 RMK AO2 SLP200 T00281078


Station Type Date Time Source
KPUC Decoded METAR 2023/02/06 18:53 UTC NOAA

PRICE CARBON COUNTY AIRPORT, UT, United States (KPUC) 39-37N 110-45W 2091M
Feb 06, 2023 - 01:53 PM EST / 2023.02.06 1853 UTC
Wind: from the NNW (330 degrees) at 9 MPH (8 KT) gusting to 18 MPH (16 KT):0
Visibility: 10 mile(s):0
Sky conditions: mostly clear
Temperature: 37.0 F (2.8 C)
Dew Point: 18.0 F (-7.8 C)
Relative Humidity: 45%
Pressure (altimeter): 30.05 in. Hg (1017 hPa)
ob: KPUC 061853Z AUTO 33008G16KT 10SM FEW050 03/M08 A3005 RMK AO2 SLP200 T00281078
cycle: 19

Station Type Date Time Source
KPUC TAF UTC NOAA

Error!

Example: see airport list